createdAt,value
2018-09-27T00:00:57.326Z,0
2018-09-27T00:02:07.269Z,0
2018-09-27T00:03:17.209Z,0
2018-09-27T00:04:27.151Z,0
2018-09-27T00:05:37.095Z,0
2018-09-27T00:06:47.009Z,0
2018-09-27T00:07:56.949Z,0
2018-09-27T00:09:06.631Z,0
2018-09-27T00:10:16.571Z,0
2018-09-27T00:11:26.499Z,0
2018-09-27T00:12:36.443Z,0
2018-09-27T00:13:46.368Z,0
2018-09-27T00:14:56.314Z,0
2018-09-27T00:16:06.009Z,0
2018-09-27T00:17:15.691Z,0
2018-09-27T00:18:25.639Z,0
2018-09-27T00:19:35.907Z,0
2018-09-27T00:20:45.263Z,0
2018-09-27T00:21:54.687Z,0
2018-09-27T00:23:04.681Z,0
2018-09-27T00:24:14.352Z,0
2018-09-27T00:25:24.283Z,0
2018-09-27T00:26:34.229Z,0
2018-09-27T00:27:44.167Z,0
2018-09-27T00:28:53.856Z,0
2018-09-27T00:30:03.798Z,0
2018-09-27T00:31:13.496Z,0
2018-09-27T00:32:23.742Z,0
2018-09-27T00:33:33.155Z,0
2018-09-27T00:34:43.097Z,0
2018-09-27T00:35:53.036Z,0
2018-09-27T00:37:02.707Z,0
2018-09-27T00:38:12.645Z,0
2018-09-27T00:39:22.340Z,0
2018-09-27T00:40:32.284Z,0
2018-09-27T00:41:41.704Z,0
2018-09-27T00:42:51.646Z,0
2018-09-27T00:44:01.342Z,0
2018-09-27T00:45:11.286Z,0
2018-09-27T00:46:20.974Z,0
2018-09-27T00:47:30.963Z,0
2018-09-27T00:48:40.912Z,0
2018-09-27T00:49:50.849Z,0
2018-09-27T00:51:00.778Z,0
2018-09-27T00:52:10.475Z,0
2018-09-27T00:53:20.417Z,0
2018-09-27T00:54:30.354Z,0
2018-09-27T00:55:40.299Z,0
2018-09-27T00:56:50.234Z,0
2018-09-27T00:57:59.913Z,0
2018-09-27T00:59:09.597Z,0
2018-09-27T01:00:19.277Z,0
2018-09-27T01:01:29.212Z,0
2018-09-27T01:02:38.894Z,0
2018-09-27T01:03:48.845Z,0
2018-09-27T01:04:58.771Z,0
2018-09-27T01:06:08.466Z,0
2018-09-27T01:07:18.158Z,0
2018-09-27T01:08:28.104Z,0
2018-09-27T01:09:37.791Z,0
2018-09-27T01:10:47.741Z,0
2018-09-27T01:11:57.687Z,0
2018-09-27T01:13:07.640Z,0
2018-09-27T01:14:17.625Z,0
2018-09-27T01:15:27.325Z,0
2018-09-27T01:16:37.258Z,0
2018-09-27T01:17:46.944Z,0
2018-09-27T01:18:56.872Z,0
2018-09-27T01:20:06.823Z,0
2018-09-27T01:21:16.260Z,0
2018-09-27T01:22:25.680Z,0
2018-09-27T01:23:35.626Z,0
2018-09-27T01:24:45.558Z,0
2018-09-27T01:25:55.492Z,0
2018-09-27T01:27:05.439Z,0
2018-09-27T01:28:15.419Z,0
2018-09-27T01:29:25.113Z,0
2018-09-27T01:30:35.086Z,0
2018-09-27T01:31:45.034Z,0
2018-09-27T01:32:54.988Z,0
2018-09-27T01:34:04.942Z,0
2018-09-27T01:35:14.626Z,0
2018-09-27T01:36:24.578Z,0
2018-09-27T01:37:34.276Z,0
2018-09-27T01:38:43.725Z,0
2018-09-27T01:39:53.662Z,0
2018-09-27T01:41:03.098Z,0
2018-09-27T01:42:13.034Z,0
2018-09-27T01:43:22.982Z,0
2018-09-27T01:44:32.909Z,0
2018-09-27T01:45:42.842Z,0
2018-09-27T01:46:52.766Z,0
2018-09-27T01:48:02.467Z,0
2018-09-27T01:49:12.138Z,0
2018-09-27T01:50:22.089Z,0
2018-09-27T01:51:32.047Z,0
2018-09-27T01:52:42.048Z,0
2018-09-27T01:53:51.989Z,0
2018-09-27T01:55:01.405Z,0
2018-09-27T01:56:11.341Z,0
2018-09-27T01:57:21.278Z,0
2018-09-27T01:58:31.222Z,0
2018-09-27T01:59:41.154Z,0
2018-09-27T02:00:50.850Z,0
2018-09-27T02:02:00.791Z,0
2018-09-27T02:03:10.729Z,0
2018-09-27T02:04:20.681Z,0
2018-09-27T02:05:30.371Z,0
2018-09-27T02:06:40.327Z,0
2018-09-27T02:07:50.273Z,0
2018-09-27T02:09:00.224Z,0
2018-09-27T02:10:10.172Z,0
2018-09-27T02:11:20.121Z,0
2018-09-27T02:12:29.555Z,0
2018-09-27T02:13:39.509Z,0
2018-09-27T02:14:49.216Z,0
2018-09-27T02:15:58.904Z,0
2018-09-27T02:17:08.856Z,0
2018-09-27T02:18:18.538Z,0
2018-09-27T02:19:28.716Z,0
2018-09-27T02:20:38.396Z,0
2018-09-27T02:21:47.844Z,0
2018-09-27T02:22:57.770Z,0
2018-09-27T02:24:07.726Z,0
2018-09-27T02:25:17.662Z,0
2018-09-27T02:26:27.603Z,0
2018-09-27T02:27:37.292Z,0
2018-09-27T02:28:47.232Z,0
2018-09-27T02:29:57.179Z,0
2018-09-27T02:31:07.118Z,0
2018-09-27T02:32:17.078Z,0
2018-09-27T02:33:27.007Z,0
2018-09-27T02:34:36.958Z,0
2018-09-27T02:35:46.948Z,0
2018-09-27T02:36:56.641Z,0
2018-09-27T02:38:06.610Z,0
2018-09-27T02:39:16.558Z,0
2018-09-27T02:40:26.520Z,0
2018-09-27T02:41:36.485Z,0
2018-09-27T02:42:46.422Z,0
2018-09-27T02:43:56.382Z,0
2018-09-27T02:45:06.340Z,0
2018-09-27T02:46:16.017Z,0
2018-09-27T02:47:25.981Z,0
2018-09-27T02:48:35.936Z,0
2018-09-27T02:49:45.628Z,0
2018-09-27T02:50:55.584Z,0
2018-09-27T02:52:05.526Z,0
2018-09-27T02:53:15.224Z,0
2018-09-27T02:54:25.162Z,0
2018-09-27T02:55:35.139Z,0
2018-09-27T02:56:45.100Z,0
2018-09-27T02:57:54.553Z,0
2018-09-27T02:59:04.238Z,0
2018-09-27T03:00:13.673Z,0
2018-09-27T03:01:23.412Z,0
2018-09-27T03:02:32.850Z,0
2018-09-27T03:03:42.976Z,0
2018-09-27T03:04:52.937Z,0
2018-09-27T03:06:02.629Z,0
2018-09-27T03:07:12.335Z,0
2018-09-27T03:08:22.280Z,0
2018-09-27T03:09:32.235Z,0
2018-09-27T03:10:41.401Z,0
2018-09-27T03:11:51.361Z,0
2018-09-27T03:13:01.319Z,0
2018-09-27T03:14:11.269Z,0
2018-09-27T03:15:21.213Z,0
2018-09-27T03:16:31.161Z,0
2018-09-27T03:17:40.872Z,0
2018-09-27T03:18:51.042Z,0
2018-09-27T03:20:00.981Z,0
2018-09-27T03:21:11.291Z,0
2018-09-27T03:22:20.970Z,0
2018-09-27T03:23:30.950Z,0
2018-09-27T03:24:40.894Z,0
2018-09-27T03:25:50.576Z,0
2018-09-27T03:27:00.570Z,0
2018-09-27T03:28:10.519Z,0
2018-09-27T03:29:20.494Z,0
2018-09-27T03:30:30.442Z,0
2018-09-27T03:31:40.397Z,0
2018-09-27T03:32:50.079Z,0
2018-09-27T03:34:00.017Z,0
2018-09-27T03:35:09.710Z,0
2018-09-27T03:36:19.411Z,0
2018-09-27T03:37:29.107Z,0
2018-09-27T03:38:39.047Z,0
2018-09-27T03:39:49.387Z,0
2018-09-27T03:40:59.489Z,0
2018-09-27T03:42:09.447Z,0
2018-09-27T03:43:19.143Z,0
2018-09-27T03:44:29.071Z,0
2018-09-27T03:45:38.777Z,0
2018-09-27T03:46:48.723Z,0
2018-09-27T03:47:58.672Z,0
2018-09-27T03:49:08.624Z,0
2018-09-27T03:50:18.569Z,0
2018-09-27T03:51:28.519Z,0
2018-09-27T03:52:38.479Z,0
2018-09-27T03:53:48.177Z,0
2018-09-27T03:54:58.127Z,0
2018-09-27T03:56:08.089Z,0
2018-09-27T03:57:17.771Z,0
2018-09-27T03:58:27.470Z,0
2018-09-27T03:59:37.421Z,0
2018-09-27T04:00:47.379Z,0
2018-09-27T04:01:57.333Z,0
2018-09-27T04:03:06.780Z,0
2018-09-27T04:04:16.766Z,0
2018-09-27T04:05:26.714Z,0
2018-09-27T04:06:36.667Z,0
2018-09-27T04:07:46.613Z,0
2018-09-27T04:08:56.373Z,0
2018-09-27T04:10:06.051Z,0
2018-09-27T04:11:15.738Z,0
2018-09-27T04:12:25.707Z,0
2018-09-27T04:13:35.667Z,0
2018-09-27T04:14:45.366Z,0
2018-09-27T04:15:55.693Z,0
2018-09-27T04:17:05.730Z,0
2018-09-27T04:18:15.703Z,0
2018-09-27T04:19:25.655Z,0
2018-09-27T04:20:35.615Z,0
2018-09-27T04:21:45.810Z,0
2018-09-27T04:22:55.610Z,0
2018-09-27T04:24:05.624Z,0
2018-09-27T04:25:15.440Z,0
2018-09-27T04:26:24.872Z,0
2018-09-27T04:27:34.812Z,0
2018-09-27T04:28:44.504Z,0
2018-09-27T04:29:53.936Z,4
2018-09-27T04:31:03.633Z,0
2018-09-27T04:32:13.585Z,4
2018-09-27T04:33:23.530Z,4
2018-09-27T04:34:33.241Z,4
2018-09-27T04:35:42.412Z,8
2018-09-27T04:36:52.354Z,8
2018-09-27T04:38:02.290Z,8
2018-09-27T04:39:12.231Z,8
2018-09-27T04:40:21.926Z,12
2018-09-27T04:41:31.619Z,12
2018-09-27T04:42:41.611Z,16
2018-09-27T04:43:51.552Z,16
2018-09-27T04:45:01.501Z,20
2018-09-27T04:46:10.931Z,24
2018-09-27T04:47:20.879Z,32
2018-09-27T04:48:30.839Z,40
2018-09-27T04:49:40.274Z,44
2018-09-27T04:50:49.715Z,52
2018-09-27T04:51:59.600Z,56
2018-09-27T04:53:09.547Z,64
2018-09-27T04:54:19.516Z,84
2018-09-27T04:55:29.474Z,112
2018-09-27T04:56:39.147Z,124
2018-09-27T04:57:48.844Z,136
2018-09-27T04:58:58.834Z,140
2018-09-27T05:00:09.121Z,152
2018-09-27T05:01:19.231Z,168
2018-09-27T05:02:29.181Z,188
2018-09-27T05:03:38.956Z,216
2018-09-27T05:04:49.047Z,236
2018-09-27T05:05:58.976Z,240
2018-09-27T05:07:08.681Z,260
2018-09-27T05:08:18.610Z,296
2018-09-27T05:09:28.611Z,344
2018-09-27T05:10:38.682Z,372
2018-09-27T05:11:48.423Z,384
2018-09-27T05:12:58.385Z,412
2018-09-27T05:14:08.353Z,444
2018-09-27T05:15:18.074Z,484
2018-09-27T05:16:27.835Z,536
2018-09-27T05:17:37.524Z,560
2018-09-27T05:18:47.463Z,564
2018-09-27T05:19:57.423Z,588
2018-09-27T05:21:07.369Z,612
2018-09-27T05:22:17.317Z,684
2018-09-27T05:23:27.278Z,776
2018-09-27T05:24:36.980Z,856
2018-09-27T05:25:46.962Z,900
2018-09-27T05:26:56.665Z,932
2018-09-27T05:28:06.377Z,984
2018-09-27T05:29:16.353Z,1024
2018-09-27T05:30:26.318Z,1128
2018-09-27T05:31:36.288Z,1236
2018-09-27T05:32:45.986Z,1260
2018-09-27T05:33:55.952Z,1324
2018-09-27T05:35:05.403Z,1396
2018-09-27T05:36:15.337Z,1428
2018-09-27T05:37:25.038Z,1480
2018-09-27T05:38:35.002Z,1592
2018-09-27T05:39:44.974Z,1680
2018-09-27T05:40:54.933Z,1752
2018-09-27T05:42:04.885Z,1748
2018-09-27T05:43:14.835Z,1740
2018-09-27T05:44:24.812Z,1844
2018-09-27T05:45:35.015Z,2024
2018-09-27T05:46:45.141Z,2244
2018-09-27T05:47:55.080Z,2376
2018-09-27T05:49:05.094Z,2476
2018-09-27T05:50:15.061Z,2496
2018-09-27T05:51:24.581Z,2604
2018-09-27T05:52:34.595Z,2720
2018-09-27T05:53:44.764Z,2784
2018-09-27T05:54:54.728Z,2824
2018-09-27T05:56:05.070Z,2892
2018-09-27T05:57:14.818Z,2916
2018-09-27T05:58:24.511Z,2872
2018-09-27T05:59:34.460Z,2876
2018-09-27T06:00:44.420Z,2980
2018-09-27T06:01:54.268Z,3308
2018-09-27T06:03:03.996Z,3576
2018-09-27T06:04:13.961Z,3652
2018-09-27T06:05:23.919Z,3620
2018-09-27T06:06:33.877Z,3648
2018-09-27T06:07:43.583Z,3856
2018-09-27T06:08:53.533Z,4092
2018-09-27T06:10:03.236Z,4508
2018-09-27T06:11:13.236Z,4776
2018-09-27T06:12:23.233Z,4948
2018-09-27T06:13:33.229Z,5000
2018-09-27T06:14:43.176Z,4888
2018-09-27T06:15:53.124Z,4816
2018-09-27T06:17:03.076Z,4852
2018-09-27T06:18:12.773Z,5264
2018-09-27T06:19:23.039Z,5612
2018-09-27T06:20:32.249Z,5792
2018-09-27T06:21:42.591Z,5944
2018-09-27T06:22:52.614Z,6220
2018-09-27T06:24:02.574Z,6416
2018-09-27T06:25:12.534Z,6416
2018-09-27T06:26:22.500Z,6420
2018-09-27T06:27:32.614Z,6568
2018-09-27T06:28:42.372Z,6692
2018-09-27T06:29:52.330Z,6460
2018-09-27T06:31:02.280Z,6412
2018-09-27T06:32:11.977Z,6696
2018-09-27T06:33:21.458Z,7004
2018-09-27T06:34:31.425Z,7188
2018-09-27T06:35:41.403Z,6800
2018-09-27T06:36:50.846Z,6988
2018-09-27T06:38:00.572Z,7088
2018-09-27T06:39:10.576Z,7420
2018-09-27T06:40:20.297Z,7724
2018-09-27T06:41:30.354Z,7916
2018-09-27T06:42:40.249Z,7720
2018-09-27T06:43:50.251Z,7508
2018-09-27T06:45:00.226Z,7732
2018-09-27T06:46:10.216Z,7968
2018-09-27T06:47:20.188Z,8032
2018-09-27T06:48:30.842Z,7960
2018-09-27T06:49:40.664Z,7880
2018-09-27T06:50:50.805Z,8040
2018-09-27T06:52:00.799Z,8264
2018-09-27T06:53:10.812Z,8736
2018-09-27T06:54:20.528Z,8780
2018-09-27T06:55:31.176Z,8700
2018-09-27T06:56:41.976Z,7852
2018-09-27T06:57:52.180Z,7416
2018-09-27T06:59:01.943Z,7432
2018-09-27T07:00:11.414Z,7556
2018-09-27T07:01:20.857Z,7300
2018-09-27T07:02:30.888Z,7112
2018-09-27T07:03:40.930Z,7312
2018-09-27T07:04:50.442Z,7988
2018-09-27T07:06:00.142Z,9012
2018-09-27T07:07:10.209Z,9308
2018-09-27T07:08:19.687Z,8816
2018-09-27T07:09:29.711Z,8676
2018-09-27T07:10:39.434Z,9396
2018-09-27T07:11:49.564Z,10180
2018-09-27T07:13:00.013Z,10180
2018-09-27T07:14:10.026Z,10152
2018-09-27T07:15:19.748Z,10536
2018-09-27T07:16:29.497Z,10856
2018-09-27T07:17:39.462Z,11088
2018-09-27T07:18:49.794Z,11256
2018-09-27T07:19:59.372Z,11892
2018-09-27T07:21:09.100Z,12592
2018-09-27T07:22:19.048Z,12696
2018-09-27T07:23:28.737Z,12664
2018-09-27T07:24:38.686Z,12928
2018-09-27T07:25:48.641Z,13572
2018-09-27T07:26:58.470Z,13192
2018-09-27T07:28:08.568Z,13004
2018-09-27T07:29:18.274Z,12852
2018-09-27T07:30:27.979Z,12552
2018-09-27T07:31:37.687Z,12432
2018-09-27T07:32:47.885Z,12404
2018-09-27T07:33:57.859Z,12212
2018-09-27T07:35:07.562Z,12424
2018-09-27T07:36:17.528Z,12404
2018-09-27T07:37:27.539Z,12264
2018-09-27T07:38:37.753Z,12520
2018-09-27T07:39:47.150Z,12728
2018-09-27T07:40:57.114Z,13204
2018-09-27T07:42:07.151Z,13504
2018-09-27T07:43:17.153Z,14096
2018-09-27T07:44:27.364Z,14748
2018-09-27T07:45:37.088Z,14768
2018-09-27T07:46:46.797Z,14556
2018-09-27T07:47:56.765Z,14228
2018-09-27T07:49:06.751Z,14436
2018-09-27T07:50:16.736Z,14388
2018-09-27T07:51:26.710Z,14516
2018-09-27T07:52:36.668Z,15164
2018-09-27T07:53:46.651Z,14700
2018-09-27T07:54:57.156Z,14848
2018-09-27T07:56:07.268Z,15432
2018-09-27T07:57:17.248Z,16368
2018-09-27T07:58:27.232Z,16944
2018-09-27T07:59:37.210Z,17888
2018-09-27T08:00:47.270Z,18944
2018-09-27T08:01:56.828Z,19104
2018-09-27T08:03:06.989Z,18336
2018-09-27T08:04:17.150Z,18048
2018-09-27T08:05:27.299Z,19552
2018-09-27T08:06:37.259Z,20800
2018-09-27T08:07:47.220Z,21152
2018-09-27T08:08:56.967Z,21632
2018-09-27T08:10:06.915Z,22464
2018-09-27T08:11:17.494Z,22848
2018-09-27T08:12:27.301Z,24320
2018-09-27T08:13:37.012Z,24896
2018-09-27T08:14:47.323Z,24992
2018-09-27T08:15:56.775Z,24096
2018-09-27T08:17:06.979Z,25504
2018-09-27T08:18:16.801Z,23040
2018-09-27T08:19:26.838Z,20672
2018-09-27T08:20:37.306Z,17524
2018-09-27T08:21:47.552Z,18368
2018-09-27T08:22:57.543Z,23360
2018-09-27T08:24:07.771Z,34144
2018-09-27T08:25:17.622Z,37920
2018-09-27T08:26:27.100Z,38464
2018-09-27T08:27:37.259Z,27296
2018-09-27T08:28:46.980Z,42912
2018-09-27T08:29:56.973Z,31680
2018-09-27T08:31:07.225Z,43840
2018-09-27T08:32:17.291Z,43520
2018-09-27T08:33:27.274Z,42336
2018-09-27T08:34:37.291Z,45760
2018-09-27T08:35:47.288Z,45280
2018-09-27T08:36:57.245Z,26016
2018-09-27T08:38:07.226Z,35328
2018-09-27T08:39:17.027Z,47104
2018-09-27T08:40:27.006Z,46688
2018-09-27T08:41:36.731Z,36928
2018-09-27T08:42:46.411Z,40512
2018-09-27T08:43:56.360Z,43360
2018-09-27T08:45:07.633Z,43712
2018-09-27T08:46:17.923Z,46560
2018-09-27T08:47:27.911Z,45568
2018-09-27T08:48:37.344Z,46080
2018-09-27T08:49:46.796Z,45440
2018-09-27T08:50:56.528Z,45216
2018-09-27T08:52:06.252Z,46752
2018-09-27T08:53:15.988Z,47712
2018-09-27T08:54:25.424Z,50496
2018-09-27T08:55:34.995Z,50400
2018-09-27T08:56:45.121Z,50208
2018-09-27T08:57:54.587Z,51104
2018-09-27T08:59:04.289Z,50880
2018-09-27T09:00:13.751Z,51520
2018-09-27T09:01:23.784Z,51488
2018-09-27T09:02:33.815Z,53024
2018-09-27T09:03:44.461Z,51360
2018-09-27T09:04:54.411Z,52960
2018-09-27T09:06:04.131Z,55104
2018-09-27T09:07:14.129Z,56032
2018-09-27T09:08:23.854Z,57184
2018-09-27T09:09:34.001Z,60416
2018-09-27T09:10:44.223Z,58432
2018-09-27T09:11:53.922Z,57056
2018-09-27T09:13:03.944Z,57568
2018-09-27T09:14:13.931Z,56928
2018-09-27T09:15:23.880Z,60608
2018-09-27T09:16:33.887Z,63232
2018-09-27T09:17:43.621Z,62688
2018-09-27T09:18:53.342Z,63168
2018-09-27T09:20:03.342Z,66048
2018-09-27T09:21:13.308Z,66208
2018-09-27T09:22:22.766Z,66336
2018-09-27T09:23:32.481Z,66816
2018-09-27T09:24:42.532Z,66080
2018-09-27T09:25:52.610Z,66688
2018-09-27T09:27:02.625Z,67200
2018-09-27T09:28:12.605Z,68352
2018-09-27T09:29:22.853Z,72160
2018-09-27T09:30:32.988Z,72544
2018-09-27T09:31:42.957Z,73952
2018-09-27T09:32:52.923Z,74464
2018-09-27T09:34:02.889Z,73280
2018-09-27T09:35:12.873Z,72960
2018-09-27T09:36:22.843Z,76800
2018-09-27T09:37:32.818Z,76000
2018-09-27T09:38:42.773Z,75200
2018-09-27T09:39:52.756Z,63872
2018-09-27T09:41:02.724Z,68448
2018-09-27T09:42:12.466Z,82816
2018-09-27T09:43:22.210Z,81120
2018-09-27T09:44:32.187Z,57376
2018-09-27T09:45:41.917Z,49600
2018-09-27T09:46:51.867Z,36096
2018-09-27T09:48:01.602Z,34720
2018-09-27T09:49:11.557Z,97088
2018-09-27T09:50:21.554Z,44800
2018-09-27T09:51:31.532Z,33056
2018-09-27T09:52:41.513Z,75744
2018-09-27T09:53:51.222Z,73536
2018-09-27T09:55:00.920Z,89664
2018-09-27T09:56:10.627Z,32992
2018-09-27T09:57:20.591Z,71392
2018-09-27T09:58:30.552Z,94208
2018-09-27T09:59:40.251Z,94496
2018-09-27T10:00:50.256Z,94496
2018-09-27T10:02:00.223Z,96000
2018-09-27T10:03:09.679Z,94976
2018-09-27T10:04:19.651Z,93632
2018-09-27T10:05:29.635Z,96704
2018-09-27T10:06:39.611Z,96672
2018-09-27T10:07:49.314Z,99488
2018-09-27T10:08:59.211Z,97632
2018-09-27T10:10:08.782Z,98656
2018-09-27T10:11:18.550Z,94656
2018-09-27T10:12:28.593Z,91264
2018-09-27T10:13:38.333Z,93888
2018-09-27T10:14:48.049Z,94176
2018-09-27T10:15:58.260Z,97216
2018-09-27T10:17:08.223Z,92512
2018-09-27T10:18:18.209Z,97216
2018-09-27T10:19:28.159Z,99616
2018-09-27T10:20:37.609Z,98304
2018-09-27T10:21:48.168Z,99392
2018-09-27T10:22:58.004Z,97376
2018-09-27T10:24:07.983Z,97376
2018-09-27T10:25:17.986Z,97184
2018-09-27T10:26:27.962Z,99744
2018-09-27T10:27:38.057Z,91296
2018-09-27T10:28:48.105Z,101952
2018-09-27T10:29:57.837Z,104992
2018-09-27T10:31:07.811Z,107264
2018-09-27T10:32:17.502Z,104960
2018-09-27T10:33:27.482Z,110368
2018-09-27T10:34:37.095Z,108736
2018-09-27T10:35:46.653Z,111296
2018-09-27T10:36:56.086Z,114176
2018-09-27T10:38:06.057Z,112992
2018-09-27T10:39:15.772Z,111744
2018-09-27T10:40:25.750Z,108032
2018-09-27T10:41:35.697Z,105472
2018-09-27T10:42:45.157Z,112064
2018-09-27T10:43:54.867Z,109376
2018-09-27T10:45:04.864Z,108768
2018-09-27T10:46:14.569Z,109664
2018-09-27T10:47:24.540Z,72704
2018-09-27T10:48:34.267Z,113920
2018-09-27T10:49:43.964Z,112672
2018-09-27T10:50:53.933Z,118528
2018-09-27T10:52:03.901Z,112224
2018-09-27T10:53:13.608Z,116960
2018-09-27T10:54:23.590Z,113664
2018-09-27T10:55:33.298Z,113184
2018-09-27T10:56:43.248Z,110784
2018-09-27T10:57:53.232Z,113056
2018-09-27T10:59:03.206Z,109664
2018-09-27T11:00:13.198Z,115808
2018-09-27T11:01:22.901Z,115104
2018-09-27T11:02:32.875Z,119168
2018-09-27T11:03:42.832Z,108416
2018-09-27T11:04:52.808Z,112000
2018-09-27T11:06:02.781Z,110848
2018-09-27T11:07:12.749Z,103104
2018-09-27T11:08:22.744Z,115776
2018-09-27T11:09:32.468Z,107616
2018-09-27T11:10:42.190Z,119360
2018-09-27T11:11:51.746Z,117888
2018-09-27T11:13:01.465Z,112832
2018-09-27T11:14:11.436Z,98208
2018-09-27T11:15:20.891Z,113280
2018-09-27T11:16:31.372Z,86528
2018-09-27T11:17:41.469Z,57568
2018-09-27T11:18:51.463Z,114272
2018-09-27T11:20:01.172Z,121280
2018-09-27T11:21:11.151Z,117824
2018-09-27T11:22:21.156Z,119552
2018-09-27T11:23:30.942Z,120192
2018-09-27T11:24:41.107Z,129376
2018-09-27T11:25:50.807Z,29856
2018-09-27T11:27:00.519Z,26208
2018-09-27T11:28:10.491Z,113504
2018-09-27T11:29:20.475Z,131936
2018-09-27T11:30:30.444Z,130720
2018-09-27T11:31:40.442Z,27936
2018-09-27T11:32:50.421Z,28480
2018-09-27T11:34:00.393Z,30912
2018-09-27T11:35:10.380Z,106688
2018-09-27T11:36:20.671Z,116384
2018-09-27T11:37:30.448Z,123648
2018-09-27T11:38:40.325Z,121536
2018-09-27T11:39:50.060Z,125216
2018-09-27T11:40:59.891Z,124224
2018-09-27T11:42:09.350Z,32128
2018-09-27T11:43:19.326Z,49088
2018-09-27T11:44:29.319Z,40064
2018-09-27T11:45:39.302Z,119744
2018-09-27T11:46:49.283Z,121280
2018-09-27T11:47:59.283Z,121728
2018-09-27T11:49:09.775Z,125504
2018-09-27T11:50:19.829Z,33408
2018-09-27T11:51:30.075Z,49344
2018-09-27T11:52:40.053Z,27712
2018-09-27T11:53:50.026Z,113152
2018-09-27T11:55:00.435Z,118464
2018-09-27T11:56:10.684Z,124320
2018-09-27T11:57:20.696Z,123200
2018-09-27T11:58:30.651Z,128320
2018-09-27T11:59:40.637Z,128384
2018-09-27T12:00:50.747Z,128736
2018-09-27T12:02:00.722Z,120448
2018-09-27T12:03:10.441Z,122720
2018-09-27T12:04:20.409Z,122432
2018-09-27T12:05:30.370Z,118944
2018-09-27T12:06:40.610Z,123712
2018-09-27T12:07:50.850Z,33760
2018-09-27T12:09:00.548Z,115200
2018-09-27T12:10:10.022Z,123680
2018-09-27T12:11:19.999Z,121792
2018-09-27T12:12:29.963Z,92320
2018-09-27T12:13:39.735Z,126912
2018-09-27T12:14:50.032Z,134432
2018-09-27T12:15:59.484Z,117312
2018-09-27T12:17:08.949Z,63808
2018-09-27T12:18:18.921Z,35712
2018-09-27T12:19:29.123Z,107520
2018-09-27T12:20:38.263Z,113152
2018-09-27T12:21:48.247Z,38496
2018-09-27T12:22:58.406Z,117184
2018-09-27T12:24:08.419Z,118304
2018-09-27T12:25:18.400Z,115872
2018-09-27T12:26:28.368Z,123712
2018-09-27T12:27:38.555Z,82336
2018-09-27T12:28:48.714Z,129696
2018-09-27T12:29:58.660Z,130304
2018-09-27T12:31:09.124Z,134144
2018-09-27T12:32:19.168Z,120160
2018-09-27T12:33:29.144Z,122176
2018-09-27T12:34:38.848Z,54656
2018-09-27T12:35:48.585Z,23520
2018-09-27T12:36:58.295Z,25952
2018-09-27T12:38:08.305Z,128416
2018-09-27T12:39:18.021Z,126016
2018-09-27T12:40:28.081Z,130656
2018-09-27T12:41:38.583Z,123296
2018-09-27T12:42:49.138Z,117952
2018-09-27T12:43:58.972Z,122592
2018-09-27T12:45:09.397Z,108800
2018-09-27T12:46:19.967Z,112448
2018-09-27T12:47:29.883Z,116576
2018-09-27T12:48:40.660Z,115552
2018-09-27T12:49:50.945Z,118528
2018-09-27T12:51:01.303Z,127680
2018-09-27T12:52:12.214Z,131904
2018-09-27T12:53:23.107Z,129824
2018-09-27T12:54:32.812Z,137600
2018-09-27T12:55:42.278Z,133024
2018-09-27T12:56:52.256Z,128256
2018-09-27T12:58:02.215Z,125952
2018-09-27T12:59:12.183Z,27552
2018-09-27T13:00:22.154Z,126368
2018-09-27T13:01:32.032Z,135200
2018-09-27T13:02:42.712Z,133664
2018-09-27T13:03:52.491Z,136800
2018-09-27T13:05:02.598Z,140224
2018-09-27T13:06:12.570Z,85632
2018-09-27T13:07:22.589Z,126816
2018-09-27T13:08:32.761Z,118240
2018-09-27T13:09:43.423Z,107776
2018-09-27T13:10:53.470Z,117536
2018-09-27T13:12:04.051Z,116032
2018-09-27T13:13:14.312Z,119616
2018-09-27T13:14:24.633Z,115296
2018-09-27T13:15:34.663Z,120704
2018-09-27T13:16:44.114Z,119488
2018-09-27T13:17:53.975Z,116704
2018-09-27T13:19:05.225Z,126560
2018-09-27T13:20:14.863Z,114848
2018-09-27T13:21:24.655Z,122592
2018-09-27T13:22:34.711Z,123744
2018-09-27T13:23:44.689Z,116640
2018-09-27T13:24:54.846Z,113696
2018-09-27T13:26:04.674Z,62720
2018-09-27T13:27:14.932Z,85152
2018-09-27T13:28:24.654Z,118592
2018-09-27T13:29:34.163Z,85184
2018-09-27T13:30:43.878Z,78560
2018-09-27T13:31:53.697Z,122400
2018-09-27T13:33:04.054Z,125120
2018-09-27T13:34:14.275Z,99904
2018-09-27T13:35:24.244Z,146496
2018-09-27T13:36:34.218Z,162400
2018-09-27T13:37:43.933Z,106752
2018-09-27T13:38:53.781Z,105536
2018-09-27T13:40:03.551Z,112128
2018-09-27T13:41:13.775Z,108736
2018-09-27T13:42:23.500Z,123680
2018-09-27T13:43:33.205Z,109248
2018-09-27T13:44:42.900Z,108576
2018-09-27T13:45:52.892Z,106304
2018-09-27T13:47:02.856Z,103264
2018-09-27T13:48:12.826Z,108384
2018-09-27T13:49:22.537Z,103712
2018-09-27T13:50:32.507Z,117312
2018-09-27T13:51:42.493Z,107520
2018-09-27T13:52:52.469Z,105824
2018-09-27T13:54:02.169Z,104320
2018-09-27T13:55:12.331Z,113856
2018-09-27T13:56:22.054Z,100416
2018-09-27T13:57:32.243Z,102016
2018-09-27T13:58:42.212Z,96256
2018-09-27T13:59:52.188Z,109568
2018-09-27T14:01:02.438Z,109376
2018-09-27T14:02:12.261Z,112064
2018-09-27T14:03:22.233Z,111904
2018-09-27T14:04:32.187Z,111968
2018-09-27T14:05:42.261Z,110944
2018-09-27T14:06:51.997Z,103968
2018-09-27T14:08:01.916Z,110208
2018-09-27T14:09:11.883Z,98784
2018-09-27T14:48:56.287Z,87136
2018-09-27T14:50:06.452Z,77920
2018-09-27T14:51:16.265Z,87552
2018-09-27T14:52:26.310Z,86528
2018-09-27T14:53:35.617Z,92192
2018-09-27T14:54:45.786Z,89728
2018-09-27T14:55:55.924Z,90464
2018-09-27T14:57:05.906Z,90816
2018-09-27T14:58:15.880Z,84928
2018-09-27T14:59:25.869Z,86336
2018-09-27T15:00:36.134Z,80512
2018-09-27T15:01:46.219Z,83840
2018-09-27T15:02:55.940Z,81728
2018-09-27T15:04:05.923Z,82880
2018-09-27T15:05:15.651Z,79072
2018-09-27T15:06:25.115Z,76672
2018-09-27T15:07:34.849Z,81184
2018-09-27T15:08:44.561Z,78752
2018-09-27T15:09:55.081Z,76640
2018-09-27T15:11:05.095Z,76224
2018-09-27T15:12:15.160Z,72000
2018-09-27T15:13:25.120Z,71136
2018-09-27T15:14:35.313Z,70240
2018-09-27T15:15:45.164Z,73248
2018-09-27T15:16:55.120Z,68640
2018-09-27T15:18:05.454Z,69024
2018-09-27T15:19:15.461Z,64096
2018-09-27T15:20:24.932Z,65920
2018-09-27T15:21:34.899Z,63520
2018-09-27T15:22:45.261Z,68896
2018-09-27T15:23:55.316Z,60640
2018-09-27T15:25:05.303Z,66016
2018-09-27T15:26:15.027Z,59680
2018-09-27T15:27:24.985Z,57440
2018-09-27T15:28:34.946Z,58144
2018-09-27T15:29:44.662Z,57216
2018-09-27T15:30:54.230Z,60704
2018-09-27T15:32:03.680Z,56736
2018-09-27T15:33:13.673Z,52288
2018-09-27T15:34:23.668Z,46336
2018-09-27T15:35:33.663Z,42848
2018-09-27T15:36:44.045Z,43040
2018-09-27T15:37:54.001Z,35680
2018-09-27T15:39:03.979Z,35392
2018-09-27T15:40:14.083Z,34336
2018-09-27T15:41:24.049Z,34912
2018-09-27T15:42:34.016Z,38400
2018-09-27T15:43:43.729Z,38400
2018-09-27T15:44:53.704Z,38176
2018-09-27T15:46:02.892Z,37984
2018-09-27T15:47:12.882Z,39744
2018-09-27T15:48:22.581Z,42080
2018-09-27T15:49:32.567Z,40544
2018-09-27T15:50:42.581Z,43456
2018-09-27T15:51:52.028Z,40384
2018-09-27T15:53:01.751Z,38208
2018-09-27T15:54:11.726Z,40160
2018-09-27T15:55:21.672Z,37568
2018-09-27T15:56:31.636Z,36160
2018-09-27T15:57:41.591Z,33120
2018-09-27T15:58:51.613Z,31776
2018-09-27T16:00:01.594Z,30528
2018-09-27T16:01:11.049Z,30400
2018-09-27T16:02:20.740Z,30560
2018-09-27T16:03:30.443Z,30176
2018-09-27T16:04:40.423Z,27744
2018-09-27T16:05:50.438Z,27904
2018-09-27T16:07:00.414Z,27008
2018-09-27T16:08:10.360Z,24736
2018-09-27T16:09:20.349Z,23232
2018-09-27T16:10:30.048Z,22752
2018-09-27T16:11:40.296Z,21728
2018-09-27T16:12:50.295Z,20992
2018-09-27T16:14:00.264Z,19712
2018-09-27T16:15:10.258Z,18144
2018-09-27T16:16:20.229Z,16256